Time;durP1;ratioP1;P1;durP2;ratioP2;P2;SDS_P1;SDS_P2;PMS_P1;PMS_P2;Temp;Humidity;BMP_temperature;BMP_pressure;BME280_temperature;BME280_humidity;BME280_pressure;Samples;Min_cycle;Max_cycle;Signal;HPM_P1;HPM_P2
2021/12/23 00:00:12;;;;;;;33.70;22.52;;;7.30;93.50;;;;;;5060911;28;20074;-65
2021/12/23 00:02:40;;;;;;;34.30;21.75;;;7.30;93.30;;;;;;5097314;28;20067;-66
2021/12/23 00:05:10;;;;;;;29.42;21.98;;;7.30;93.30;;;;;;5097715;28;20038;-66
2021/12/23 00:07:38;;;;;;;29.05;21.23;;;7.40;93.30;;;;;;5092427;27;20040;-66
2021/12/23 00:10:08;;;;;;;32.55;21.42;;;7.40;93.30;;;;;;5085999;28;20075;-66
2021/12/23 00:12:39;;;;;;;36.38;21.17;;;7.40;93.20;;;;;;5111504;28;20126;-66
2021/12/23 00:15:16;;;;;;;25.15;20.95;;;7.40;93.20;;;;;;5081368;28;20074;-68
2021/12/23 00:25:39;;;;;;;34.47;20.77;;;7.40;93.20;;;;;;5094200;28;20489;-66
2021/12/23 00:28:06;;;;;;;27.83;20.55;;;7.40;93.20;;;;;;5076986;28;20075;-66
2021/12/23 00:30:34;;;;;;;26.45;19.33;;;7.40;93.30;;;;;;5081656;28;20062;-66
2021/12/23 00:33:02;;;;;;;27.83;19.73;;;7.40;93.30;;;;;;5096639;28;20081;-66
2021/12/23 00:35:29;;;;;;;25.63;17.67;;;7.40;93.30;;;;;;5096508;28;20043;-65
2021/12/23 00:38:11;;;;;;;32.33;19.50;;;7.40;93.30;;;;;;5096051;28;20054;-65
2021/12/23 00:40:38;;;;;;;27.13;17.88;;;7.40;93.40;;;;;;5080328;27;20053;-67
2021/12/23 00:43:06;;;;;;;25.25;17.88;;;7.40;93.40;;;;;;5101150;28;20052;-66
2021/12/23 00:45:34;;;;;;;24.90;16.95;;;7.40;93.40;;;;;;5111107;28;20065;-66
2021/12/23 00:48:01;;;;;;;20.77;16.85;;;7.50;93.30;;;;;;5080446;28;20074;-66
2021/12/23 00:50:29;;;;;;;23.00;15.63;;;7.50;93.30;;;;;;5079815;28;20432;-66
2021/12/23 00:53:00;;;;;;;19.08;14.48;;;7.50;93.30;;;;;;5085346;28;20394;-66
2021/12/23 00:55:27;;;;;;;21.95;14.50;;;7.50;93.30;;;;;;5076605;28;20048;-66
2021/12/23 00:57:55;;;;;;;19.08;14.43;;;7.50;93.30;;;;;;5079359;28;20046;-65
2021/12/23 01:00:22;;;;;;;18.20;12.05;;;7.50;93.20;;;;;;5112256;28;20126;-66
2021/12/23 01:02:50;;;;;;;15.75;11.57;;;7.50;93.10;;;;;;5087711;28;20059;-65
2021/12/23 01:05:20;;;;;;;16.88;13.02;;;7.50;93.10;;;;;;5061894;28;20516;-66
2021/12/23 01:07:49;;;;;;;15.48;11.00;;;7.50;93.00;;;;;;5063147;28;20096;-65
2021/12/23 01:10:18;;;;;;;16.42;10.68;;;7.50;93.00;;;;;;5078292;28;20436;-65
2021/12/23 01:12:52;;;;;;;13.20;10.02;;;7.50;93.10;;;;;;5095086;28;20035;-65
2021/12/23 01:20:28;;;;;;;14.73;9.50;;;7.60;93.10;;;;;;5099456;28;20047;-66
2021/12/23 01:23:09;;;;;;;12.23;8.40;;;7.60;93.10;;;;;;5106901;28;20051;-66
2021/12/23 01:25:39;;;;;;;8.75;7.63;;;7.60;93.10;;;;;;5095700;28;20035;-66
2021/12/23 01:28:08;;;;;;;11.70;7.20;;;7.60;93.10;;;;;;5107537;28;20044;-66
2021/12/23 01:30:37;;;;;;;11.48;7.43;;;7.60;93.00;;;;;;5076948;28;20046;-66
2021/12/23 01:33:07;;;;;;;9.95;6.43;;;7.60;93.00;;;;;;5109791;28;20387;-65
2021/12/23 01:35:36;;;;;;;10.10;6.70;;;7.60;93.00;;;;;;5100895;27;20043;-67
2021/12/23 01:38:04;;;;;;;8.15;5.63;;;7.60;93.00;;;;;;5082100;28;20048;-66
2021/12/23 01:40:33;;;;;;;11.73;5.93;;;7.60;93.00;;;;;;5068211;28;20048;-66
2021/12/23 01:43:03;;;;;;;7.78;5.43;;;7.60;92.90;;;;;;5090608;28;20064;-66
2021/12/23 01:45:32;;;;;;;8.40;5.47;;;7.60;92.90;;;;;;5091595;27;20128;-66
2021/12/23 01:48:01;;;;;;;7.45;4.88;;;7.60;92.90;;;;;;5107115;28;20035;-66
2021/12/23 01:50:30;;;;;;;9.35;4.90;;;7.60;92.90;;;;;;5093545;28;20039;-67
2021/12/23 01:52:59;;;;;;;9.27;5.63;;;7.60;93.00;;;;;;5059568;28;20532;-65
2021/12/23 01:55:27;;;;;;;6.80;4.75;;;7.60;93.00;;;;;;5092147;28;20040;-66
2021/12/23 01:57:57;;;;;;;5.57;4.50;;;7.60;93.00;;;;;;5096911;28;20047;-66
2021/12/23 02:00:33;;;;;;;7.45;4.88;;;7.60;93.10;;;;;;5095064;28;20131;-67
2021/12/23 02:03:02;;;;;;;7.15;4.38;;;7.60;93.10;;;;;;5113062;28;20043;-66
2021/12/23 02:05:30;;;;;;;6.78;4.72;;;7.60;93.10;;;;;;5069904;28;20089;-67
2021/12/23 02:07:59;;;;;;;7.07;4.18;;;7.60;93.10;;;;;;5098050;28;20046;-66
2021/12/23 02:10:28;;;;;;;7.20;3.75;;;7.60;93.20;;;;;;5093956;28;20032;-66
2021/12/23 02:12:57;;;;;;;8.63;4.07;;;7.60;93.20;;;;;;5075099;28;20119;-66
2021/12/23 02:15:25;;;;;;;6.90;4.05;;;7.60;93.20;;;;;;5094130;28;20050;-66
2021/12/23 02:17:54;;;;;;;5.30;3.78;;;7.60;93.30;;;;;;5057644;28;20095;-71
2021/12/23 02:20:24;;;;;;;5.53;3.90;;;7.60;93.30;;;;;;5077728;28;20517;-66
2021/12/23 02:22:52;;;;;;;6.22;3.65;;;7.50;93.20;;;;;;5078461;28;20528;-68
2021/12/23 02:25:20;;;;;;;8.93;3.85;;;7.60;93.20;;;;;;5070117;28;20067;-66
2021/12/23 02:27:48;;;;;;;6.35;3.80;;;7.50;93.10;;;;;;5088474;28;20040;-66
2021/12/23 02:30:19;;;;;;;4.30;3.42;;;7.50;93.10;;;;;;5076293;28;20081;-66
2021/12/23 02:32:47;;;;;;;4.95;3.65;;;7.50;93.10;;;;;;5058869;28;20379;-65
2021/12/23 02:35:16;;;;;;;6.20;3.80;;;7.60;93.10;;;;;;5074453;28;20035;-67
2021/12/23 02:37:45;;;;;;;5.65;3.90;;;7.60;93.00;;;;;;5073815;28;20656;-66
2021/12/23 02:40:25;;;;;;;6.03;4.13;;;7.60;92.80;;;;;;5057852;28;20141;-65
2021/12/23 02:42:54;;;;;;;5.28;3.28;;;7.60;92.90;;;;;;5058891;28;20123;-66
2021/12/23 02:45:22;;;;;;;6.05;3.80;;;7.60;93.00;;;;;;5060303;28;20498;-66
2021/12/23 02:47:50;;;;;;;5.32;4.10;;;7.60;93.10;;;;;;5077789;28;20036;-65
2021/12/23 02:50:18;;;;;;;6.05;3.58;;;7.60;93.20;;;;;;5093864;28;20120;-66
2021/12/23 02:52:45;;;;;;;9.40;4.50;;;7.60;93.20;;;;;;5078218;28;20047;-65
2021/12/23 02:55:17;;;;;;;4.50;3.15;;;7.60;93.20;;;;;;5061300;28;20089;-66
2021/12/23 02:57:45;;;;;;;6.63;3.85;;;7.60;93.20;;;;;;5094847;28;20063;-66
2021/12/23 03:00:13;;;;;;;5.28;3.10;;;7.60;93.20;;;;;;5062843;28;20484;-65
2021/12/23 03:02:41;;;;;;;5.88;3.40;;;7.60;93.20;;;;;;5078669;28;20051;-66
2021/12/23 03:05:09;;;;;;;6.30;3.40;;;7.50;93.20;;;;;;5086239;28;20044;-65
2021/12/23 03:07:36;;;;;;;7.38;3.53;;;7.50;93.20;;;;;;5093597;28;20131;-65
2021/12/23 03:10:07;;;;;;;6.07;3.60;;;7.50;93.20;;;;;;5095891;28;20040;-65
2021/12/23 03:12:35;;;;;;;4.50;2.78;;;7.50;93.20;;;;;;5114118;28;20506;-65
2021/12/23 03:15:04;;;;;;;5.18;3.28;;;7.50;93.10;;;;;;5062328;28;20054;-65
2021/12/23 03:17:31;;;;;;;5.32;3.33;;;7.40;93.10;;;;;;5095906;28;20517;-65
2021/12/23 03:19:59;;;;;;;5.47;4.13;;;7.40;93.00;;;;;;5062769;28;20383;-65
2021/12/23 03:22:27;;;;;;;5.00;3.35;;;7.40;92.90;;;;;;5062625;28;20062;-65
2021/12/23 03:24:55;;;;;;;8.50;4.35;;;7.40;92.80;;;;;;5062489;28;20074;-65
2021/12/23 03:27:22;;;;;;;6.45;4.05;;;7.40;92.90;;;;;;5095542;28;20093;-65
2021/12/23 03:29:51;;;;;;;7.72;4.70;;;7.40;93.00;;;;;;5062168;28;20047;-65
2021/12/23 03:32:19;;;;;;;6.57;4.55;;;7.40;92.90;;;;;;5078846;28;20047;-65
2021/12/23 03:34:47;;;;;;;6.28;4.25;;;7.30;92.90;;;;;;5078809;28;20044;-65
2021/12/23 03:37:15;;;;;;;5.43;4.10;;;7.30;93.10;;;;;;5062214;28;20054;-65
2021/12/23 03:39:43;;;;;;;5.80;4.40;;;7.30;93.20;;;;;;5078937;28;20058;-65
2021/12/23 03:42:10;;;;;;;5.60;4.28;;;7.20;93.20;;;;;;5095609;28;20051;-66
2021/12/23 03:44:38;;;;;;;6.22;3.92;;;7.20;93.40;;;;;;5095792;28;20066;-66
2021/12/23 03:47:05;;;;;;;7.07;4.38;;;7.10;93.50;;;;;;5095918;28;20493;-65
2021/12/23 03:49:33;;;;;;;7.53;4.90;;;7.10;93.50;;;;;;5062531;28;20468;-65
2021/12/23 03:52:00;;;;;;;6.03;3.88;;;7.10;93.40;;;;;;5113370;28;20076;-65
2021/12/23 03:54:28;;;;;;;5.18;3.65;;;7.20;93.30;;;;;;5078892;28;20048;-65
2021/12/23 03:56:56;;;;;;;4.90;3.40;;;7.20;93.30;;;;;;5095672;28;20058;-65
2021/12/23 03:59:23;;;;;;;7.97;5.03;;;7.20;93.20;;;;;;5078656;28;20036;-66
2021/12/23 04:01:51;;;;;;;5.20;3.58;;;7.20;93.20;;;;;;5078678;28;20048;-65
2021/12/23 04:04:18;;;;;;;5.50;3.72;;;7.20;93.30;;;;;;5061881;28;20078;-65
2021/12/23 04:06:46;;;;;;;4.43;2.97;;;7.30;92.90;;;;;;5095977;28;20052;-65
2021/12/23 04:09:14;;;;;;;5.90;3.72;;;7.30;92.80;;;;;;5078516;28;20046;-65
2021/12/23 04:11:41;;;;;;;6.45;3.95;;;7.30;92.80;;;;;;5078109;28;20044;-65
2021/12/23 04:14:09;;;;;;;6.85;3.58;;;7.30;92.90;;;;;;5078296;28;20397;-65
2021/12/23 04:16:36;;;;;;;6.43;4.20;;;7.30;93.00;;;;;;5081827;28;20028;-65
2021/12/23 04:19:10;;;;;;;8.90;4.18;;;7.20;93.10;;;;;;5116968;28;20067;-65
2021/12/23 04:21:40;;;;;;;5.38;3.08;;;7.20;93.20;;;;;;5099068;28;20040;-65
2021/12/23 04:24:09;;;;;;;5.63;3.53;;;7.20;93.10;;;;;;5098757;28;20048;-65
2021/12/23 04:26:38;;;;;;;5.32;3.25;;;7.30;93.10;;;;;;5099121;28;20046;-65
2021/12/23 04:29:06;;;;;;;4.70;3.08;;;7.30;93.10;;;;;;5116848;28;20126;-65
2021/12/23 04:31:34;;;;;;;4.43;3.03;;;7.30;93.00;;;;;;5081704;28;20062;-65
2021/12/23 04:34:01;;;;;;;7.28;4.00;;;7.30;92.80;;;;;;5064939;28;20058;-65
2021/12/23 04:36:29;;;;;;;6.78;3.50;;;7.30;92.70;;;;;;5098595;28;20764;-65
2021/12/23 04:39:00;;;;;;;7.53;4.05;;;7.30;92.60;;;;;;5098126;28;20051;-65
2021/12/23 04:41:28;;;;;;;5.95;3.67;;;7.40;92.60;;;;;;5081317;28;20105;-65
2021/12/23 04:43:56;;;;;;;5.78;4.22;;;7.40;92.50;;;;;;5065193;28;20485;-65
2021/12/23 04:46:24;;;;;;;6.95;3.67;;;7.40;92.50;;;;;;5098554;28;20052;-66
2021/12/23 04:48:52;;;;;;;6.10;4.10;;;7.40;92.60;;;;;;5065068;28;20044;-65
2021/12/23 04:51:20;;;;;;;5.88;3.42;;;7.40;92.70;;;;;;5098209;28;20039;-65
2021/12/23 04:53:48;;;;;;;9.45;4.63;;;7.40;92.70;;;;;;5098073;28;20536;-65
2021/12/23 04:56:17;;;;;;;6.90;3.28;;;7.40;92.70;;;;;;5064739;28;20043;-66
2021/12/23 04:58:44;;;;;;;6.60;3.33;;;7.40;92.70;;;;;;5064107;28;20043;-65
2021/12/23 05:01:21;;;;;;;7.72;3.97;;;7.40;92.60;;;;;;5081573;28;20504;-65
2021/12/23 05:03:49;;;;;;;;;;;7.40;92.70;;;;;;5065378;28;20085;-65
2021/12/23 05:06:16;;;;;;;7.85;3.10;;;7.40;92.90;;;;;;5098276;28;19924;-65
2021/12/23 05:08:44;;;;;;;5.38;3.38;;;7.30;93.00;;;;;;5080771;28;20046;-65
2021/12/23 05:11:12;;;;;;;8.75;3.88;;;7.30;93.10;;;;;;5064653;28;20043;-65
2021/12/23 05:13:40;;;;;;;6.80;4.10;;;7.30;93.30;;;;;;5064624;28;20046;-66
2021/12/23 05:16:08;;;;;;;6.88;3.85;;;7.30;93.40;;;;;;5080955;28;20043;-65
2021/12/23 05:18:35;;;;;;;6.38;2.95;;;7.30;93.50;;;;;;5097739;28;20073;-65
2021/12/23 05:21:03;;;;;;;4.43;3.47;;;7.30;93.40;;;;;;5097700;28;20375;-65
2021/12/23 05:23:30;;;;;;;6.13;3.58;;;7.30;93.40;;;;;;5080809;28;20164;-65
2021/12/23 05:25:58;;;;;;;5.35;3.60;;;7.30;93.30;;;;;;5115225;28;20043;-65
2021/12/23 05:28:26;;;;;;;6.75;3.58;;;7.30;93.20;;;;;;5097779;28;20512;-66
2021/12/23 05:30:53;;;;;;;8.95;3.95;;;7.30;93.10;;;;;;5097432;28;20053;-65
2021/12/23 05:33:20;;;;;;;5.65;3.75;;;7.40;93.10;;;;;;5097334;28;20043;-65
2021/12/23 05:35:48;;;;;;;6.60;3.40;;;7.40;93.00;;;;;;5097356;28;20047;-66
2021/12/23 05:38:16;;;;;;;6.40;3.65;;;7.40;93.00;;;;;;5096975;28;20469;-65
2021/12/23 05:40:44;;;;;;;7.50;3.60;;;7.40;93.00;;;;;;5064493;28;20501;-66
2021/12/23 05:43:11;;;;;;;6.43;3.90;;;7.40;93.00;;;;;;5080544;28;20434;-66
2021/12/23 05:45:39;;;;;;;5.85;4.30;;;7.40;93.00;;;;;;5097521;28;20050;-65
2021/12/23 05:48:06;;;;;;;8.07;5.10;;;7.40;93.10;;;;;;5097508;28;20039;-65
2021/12/23 05:50:34;;;;;;;8.20;4.93;;;7.30;93.10;;;;;;5080119;28;20423;-65
2021/12/23 05:53:03;;;;;;;7.38;4.53;;;7.30;93.30;;;;;;5063915;28;20043;-65
2021/12/23 05:55:30;;;;;;;5.30;3.72;;;7.30;93.30;;;;;;5097461;28;20134;-65
2021/12/23 05:57:58;;;;;;;5.30;3.40;;;7.20;93.40;;;;;;5115266;28;20544;-65
2021/12/23 06:00:32;;;;;;;8.70;4.78;;;7.20;93.40;;;;;;5097172;28;20139;-65
2021/12/23 06:03:01;;;;;;;13.15;6.20;;;7.10;93.30;;;;;;5063565;28;20138;-65
2021/12/23 06:05:30;;;;;;;9.70;6.80;;;7.10;93.30;;;;;;5079943;28;20044;-65
2021/12/23 06:07:58;;;;;;;9.50;6.47;;;7.10;93.40;;;;;;5079754;28;20550;-65
2021/12/23 06:10:25;;;;;;;9.35;6.90;;;7.00;93.40;;;;;;5080322;28;20138;-65
2021/12/23 06:12:53;;;;;;;16.50;7.28;;;7.00;93.40;;;;;;5080065;28;20083;-65
2021/12/23 06:15:20;;;;;;;11.45;7.20;;;7.00;93.50;;;;;;5079807;28;20099;-65
2021/12/23 06:17:48;;;;;;;10.60;6.88;;;7.00;93.60;;;;;;5095823;28;20374;-65
2021/12/23 06:20:15;;;;;;;10.15;5.82;;;7.00;93.60;;;;;;5079992;28;20074;-65
2021/12/23 06:22:43;;;;;;;10.80;7.00;;;7.10;93.50;;;;;;5079902;28;20044;-65
2021/12/23 06:25:12;;;;;;;11.77;7.00;;;7.30;93.70;;;;;;5114565;28;20047;-65
2021/12/23 06:27:41;;;;;;;11.27;7.25;;;7.80;93.20;;;;;;5079779;28;20052;-65
2021/12/23 06:30:22;;;;;;;12.82;7.70;;;8.40;92.40;;;;;;5079745;28;20071;-66
2021/12/23 06:32:52;;;;;;;15.63;7.07;;;9.20;91.50;;;;;;5079921;28;20040;-65
2021/12/23 06:35:22;;;;;;;9.60;6.65;;;9.90;90.40;;;;;;5079562;28;20056;-66
2021/12/23 06:37:50;;;;;;;9.50;6.03;;;10.60;88.80;;;;;;5078673;28;20058;-65
2021/12/23 06:40:18;;;;;;;10.20;6.53;;;11.30;87.00;;;;;;5079717;28;20043;-66
2021/12/23 06:42:46;;;;;;;12.52;6.30;;;12.00;85.20;;;;;;5062884;28;20407;-65
2021/12/23 06:45:14;;;;;;;9.30;5.53;;;12.50;83.80;;;;;;5096196;28;20043;-65
2021/12/23 06:47:44;;;;;;;9.52;5.68;;;13.10;82.70;;;;;;5079517;28;20031;-65
2021/12/23 06:50:13;;;;;;;10.55;6.35;;;13.60;81.60;;;;;;5106361;28;20040;-70
2021/12/23 06:52:41;;;;;;;9.95;5.90;;;14.00;80.50;;;;;;5103578;28;20398;-65
2021/12/23 06:55:11;;;;;;;9.13;7.05;;;14.50;79.30;;;;;;5112844;28;20081;-67
2021/12/23 06:57:40;;;;;;;8.07;5.82;;;15.00;78.30;;;;;;5074744;28;20092;-67
2021/12/23 07:00:11;;;;;;;10.48;5.72;;;15.50;77.20;;;;;;5073954;28;20050;-66
2021/12/23 07:02:40;;;;;;;10.90;6.47;;;16.00;76.20;;;;;;5094174;28;20561;-66
2021/12/23 07:05:08;;;;;;;7.78;5.85;;;16.50;75.70;;;;;;5062473;28;20051;-66
2021/12/23 07:07:53;;;;;;;6.50;4.68;;;17.00;74.30;;;;;;5113674;28;20561;-66
2021/12/23 07:10:24;;;;;;;8.10;5.88;;;17.50;73.40;;;;;;5078948;28;20061;-66
2021/12/23 07:12:52;;;;;;;12.05;5.47;;;18.10;72.30;;;;;;5079178;28;20051;-66
2021/12/23 07:15:20;;;;;;;10.77;7.05;;;18.50;71.70;;;;;;5095789;28;20142;-66
2021/12/23 07:17:48;;;;;;;14.63;8.25;;;18.80;71.20;;;;;;5095859;28;20120;-66
2021/12/23 07:20:15;;;;;;;23.48;13.23;;;19.20;70.60;;;;;;5095926;28;20540;-66
2021/12/23 07:22:43;;;;;;;32.03;15.75;;;19.50;69.80;;;;;;5114191;28;20164;-65
2021/12/23 07:25:13;;;;;;;22.50;14.10;;;19.90;69.00;;;;;;5096039;28;20124;-66
2021/12/23 07:27:41;;;;;;;18.48;12.60;;;20.10;68.50;;;;;;5113895;28;20046;-66
2021/12/23 07:30:13;;;;;;;18.40;10.65;;;20.40;67.80;;;;;;5062534;28;20036;-65
2021/12/23 07:32:41;;;;;;;14.90;9.32;;;20.80;67.10;;;;;;5095959;28;20138;-65
2021/12/23 07:35:10;;;;;;;13.18;9.20;;;21.10;66.50;;;;;;5078926;28;20047;-65
2021/12/23 07:37:39;;;;;;;13.57;8.23;;;21.30;66.10;;;;;;5096014;28;20130;-65
2021/12/23 07:40:08;;;;;;;9.90;5.50;;;21.60;65.90;;;;;;5113915;28;20040;-64
2021/12/23 07:42:37;;;;;;;9.68;6.50;;;21.70;66.50;;;;;;5079197;28;20532;-66
2021/12/23 07:45:05;;;;;;;17.17;8.02;;;22.20;66.50;;;;;;5113672;28;20035;-66
2021/12/23 07:47:33;;;;;;;18.77;11.77;;;22.30;65.20;;;;;;5078640;28;20050;-66
2021/12/23 07:50:00;;;;;;;14.63;10.75;;;22.20;65.00;;;;;;5115865;28;20049;-66
2021/12/23 07:52:28;;;;;;;12.20;7.45;;;22.00;65.40;;;;;;5099819;28;20051;-66
2021/12/23 07:54:56;;;;;;;9.15;6.47;;;21.60;66.10;;;;;;5117673;28;20071;-66
2021/12/23 07:57:23;;;;;;;12.30;8.48;;;21.20;66.90;;;;;;5117597;28;20044;-66
2021/12/23 07:59:51;;;;;;;10.23;7.45;;;20.80;67.80;;;;;;5117567;28;20122;-66
2021/12/23 08:02:18;;;;;;;13.27;8.50;;;20.40;68.40;;;;;;5065859;28;20513;-66
2021/12/23 08:04:46;;;;;;;12.38;8.80;;;20.10;69.00;;;;;;5099351;28;20126;-67
2021/12/23 08:07:14;;;;;;;13.55;9.68;;;19.80;69.50;;;;;;5099309;28;20089;-67
2021/12/23 08:09:42;;;;;;;11.80;8.85;;;19.60;70.00;;;;;;5082245;28;20040;-65
2021/12/23 08:12:10;;;;;;;15.25;7.32;;;19.40;70.10;;;;;;5099174;28;20593;-66
2021/12/23 08:14:38;;;;;;;7.80;6.50;;;19.30;70.10;;;;;;5065598;28;20051;-66
2021/12/23 08:17:08;;;;;;;10.52;7.13;;;19.10;70.20;;;;;;5099075;28;20040;-66
2021/12/23 08:19:35;;;;;;;12.70;10.02;;;18.90;70.60;;;;;;5116962;28;20482;-66
2021/12/23 08:22:03;;;;;;;18.40;13.93;;;18.70;71.20;;;;;;5117392;28;20052;-66
2021/12/23 08:24:30;;;;;;;16.67;11.02;;;18.60;71.60;;;;;;5081878;28;20142;-66
2021/12/23 08:26:58;;;;;;;15.88;9.63;;;18.50;72.00;;;;;;5098800;28;20118;-66
2021/12/23 08:29:27;;;;;;;14.82;9.18;;;18.30;72.50;;;;;;5116436;28;20043;-66
2021/12/23 08:31:54;;;;;;;12.13;8.80;;;18.20;72.90;;;;;;5116294;28;20043;-67
2021/12/23 08:34:24;;;;;;;12.57;8.30;;;18.00;73.10;;;;;;5081843;28;20046;-66
2021/12/23 08:36:53;;;;;;;10.63;7.68;;;17.80;73.60;;;;;;5116728;28;20040;-66
2021/12/23 08:39:22;;;;;;;11.55;8.00;;;17.40;74.30;;;;;;5081273;28;20100;-66
2021/12/23 08:41:49;;;;;;;11.57;6.57;;;17.20;75.10;;;;;;5081874;28;20470;-66
2021/12/23 08:44:17;;;;;;;9.57;6.32;;;16.90;75.70;;;;;;5098529;28;20051;-66
2021/12/23 08:46:44;;;;;;;6.32;4.47;;;16.60;76.20;;;;;;5081768;28;20048;-66
2021/12/23 08:49:12;;;;;;;6.10;4.03;;;16.40;76.40;;;;;;5081646;28;20048;-66
2021/12/23 08:51:41;;;;;;;5.47;3.30;;;16.20;76.40;;;;;;5098542;28;20040;-66
2021/12/23 08:54:09;;;;;;;5.75;3.25;;;16.00;75.80;;;;;;5081337;28;20048;-66
2021/12/23 08:56:38;;;;;;;5.95;3.17;;;15.80;76.30;;;;;;5064979;28;20048;-66
2021/12/23 08:59:06;;;;;;;3.60;2.92;;;15.70;76.40;;;;;;5081505;28;20049;-67
2021/12/23 09:01:34;;;;;;;7.22;3.30;;;15.70;76.40;;;;;;5096872;28;20451;-66
2021/12/23 09:04:02;;;;;;;7.13;3.60;;;15.60;77.30;;;;;;5081521;28;20126;-66
2021/12/23 09:06:30;;;;;;;6.43;4.18;;;15.60;77.80;;;;;;5098047;28;20039;-67
2021/12/23 09:08:58;;;;;;;7.13;4.10;;;15.60;78.20;;;;;;5098111;28;20039;-67
2021/12/23 09:11:26;;;;;;;7.07;3.67;;;15.50;78.60;;;;;;5097993;28;20040;-66
2021/12/23 09:13:54;;;;;;;6.95;4.15;;;15.50;78.40;;;;;;5097877;28;20043;-67
2021/12/23 09:16:22;;;;;;;10.57;4.05;;;15.40;78.20;;;;;;5096676;28;20367;-66
2021/12/23 09:18:50;;;;;;;6.35;3.25;;;15.40;78.50;;;;;;5097671;28;20036;-66
2021/12/23 09:21:17;;;;;;;5.40;3.10;;;15.40;78.60;;;;;;5115761;28;20038;-66
2021/12/23 09:23:58;;;;;;;4.97;2.60;;;15.30;76.80;;;;;;5081280;28;20146;-66
2021/12/23 09:26:27;;;;;;;3.60;2.58;;;15.20;76.60;;;;;;5097455;28;20054;-66
2021/12/23 09:34:34;;;;;;;4.93;2.45;;;15.00;78.20;;;;;;5115498;28;20393;-66
2021/12/23 09:37:02;;;;;;;4.10;2.60;;;15.00;77.80;;;;;;5097581;28;20050;-66
2021/12/23 09:39:29;;;;;;;6.40;3.03;;;15.00;77.20;;;;;;5097172;28;20467;-67
2021/12/23 09:41:57;;;;;;;6.80;3.75;;;15.00;77.10;;;;;;5080573;28;20047;-66
2021/12/23 09:44:26;;;;;;;9.63;4.57;;;14.90;77.20;;;;;;5097139;28;20057;-67
2021/12/23 09:46:55;;;;;;;8.85;4.97;;;15.00;77.20;;;;;;5097387;28;20134;-65
2021/12/23 09:49:24;;;;;;;8.27;6.10;;;15.00;77.60;;;;;;5097150;28;20036;-66
2021/12/23 09:51:52;;;;;;;15.05;10.65;;;15.00;77.90;;;;;;5097280;28;20046;-65
2021/12/23 09:54:20;;;;;;;12.32;6.97;;;15.00;78.10;;;;;;5063872;28;20047;-66
2021/12/23 09:56:48;;;;;;;8.65;4.35;;;14.90;77.70;;;;;;5097166;28;20040;-65
2021/12/23 09:59:16;;;;;;;8.82;3.47;;;14.80;77.20;;;;;;5114897;28;20043;-65
2021/12/23 10:01:44;;;;;;;7.30;4.57;;;14.80;77.00;;;;;;5080123;28;20497;-65
2021/12/23 10:04:11;;;;;;;8.00;3.95;;;14.80;76.50;;;;;;5096691;28;20515;-65
2021/12/23 10:06:39;;;;;;;8.75;4.95;;;14.80;76.10;;;;;;5063349;28;20104;-65
2021/12/23 10:09:07;;;;;;;8.43;4.32;;;14.80;77.60;;;;;;5096203;28;20051;-66
2021/12/23 10:31:45;;;;;;;3.33;1.83;;;15.00;75.10;;;;;;5114552;28;20043;-66
2021/12/23 10:37:17;;;;;;;4.03;2.28;;;15.00;75.30;;;;;;5114024;28;20050;-65
2021/12/23 10:39:47;;;;;;;4.45;2.33;;;15.20;75.80;;;;;;5079349;28;20059;-67
2021/12/23 10:42:20;;;;;;;5.20;2.17;;;15.20;75.70;;;;;;5096569;28;20100;-65
2021/12/23 10:44:59;;;;;;;4.00;2.33;;;15.30;74.90;;;;;;5114221;28;20040;-65
2021/12/23 10:47:38;;;;;;;3.67;1.95;;;15.30;73.00;;;;;;5079173;28;20058;-65
2021/12/23 10:50:35;;;;;;;2.85;1.90;;;15.20;72.50;;;;;;5079064;28;20397;-66
2021/12/23 10:53:05;;;;;;;3.60;2.90;;;15.30;72.80;;;;;;5079415;28;20080;-65
2021/12/23 10:58:20;;;;;;;3.70;2.28;;;15.40;73.10;;;;;;5096161;28;20051;-66
2021/12/23 11:00:52;;;;;;;2.65;1.85;;;15.40;72.10;;;;;;5079280;28;20092;-66
2021/12/23 11:03:31;;;;;;;3.35;1.77;;;15.40;69.80;;;;;;5096321;28;20035;-65
2021/12/23 11:06:23;;;;;;;3.70;2.05;;;15.40;70.50;;;;;;5079000;28;20100;-66
2021/12/23 11:08:59;;;;;;;3.00;1.75;;;15.40;70.50;;;;;;5079504;28;20054;-65
2021/12/23 11:11:47;;;;;;;3.45;2.33;;;15.40;70.70;;;;;;5095735;28;20042;-65
2021/12/23 11:39:28;;;;;;;4.60;2.55;;;14.90;74.50;;;;;;5118076;28;20048;-65
2021/12/23 11:42:04;;;;;;;5.53;2.38;;;14.80;74.50;;;;;;5082832;28;20393;-65
2021/12/23 11:44:33;;;;;;;4.65;2.88;;;14.80;74.90;;;;;;5117705;28;20042;-67
2021/12/23 11:47:10;;;;;;;3.88;2.35;;;14.80;74.40;;;;;;5099567;28;20409;-65
2021/12/23 11:49:40;;;;;;;3.78;2.40;;;14.80;74.50;;;;;;5099922;28;20054;-65
2021/12/23 11:52:08;;;;;;;4.38;2.50;;;14.90;74.10;;;;;;5082644;28;20398;-65
2021/12/23 11:54:39;;;;;;;4.18;2.03;;;14.80;73.80;;;;;;5099621;28;20076;-65
2021/12/23 11:57:15;;;;;;;6.93;2.65;;;14.80;74.00;;;;;;5117672;28;20040;-66
2021/12/23 11:59:46;;;;;;;;;;;14.70;74.30;;;;;;5083078;28;20056;-65
2021/12/23 12:02:20;;;;;;;4.60;2.92;;;14.70;75.00;;;;;;5099704;28;19920;-65
2021/12/23 12:04:57;;;;;;;4.10;2.50;;;14.70;75.50;;;;;;5082169;28;20052;-65
2021/12/23 12:07:25;;;;;;;3.90;2.60;;;14.60;75.80;;;;;;5117361;28;20097;-65
2021/12/23 12:10:00;;;;;;;3.20;2.20;;;14.60;75.90;;;;;;5065608;28;20040;-66
2021/12/23 12:12:30;;;;;;;6.35;3.22;;;14.40;76.30;;;;;;5098547;28;20051;-65
2021/12/23 12:14:59;;;;;;;5.03;3.10;;;14.20;76.60;;;;;;5099205;28;20085;-65
2021/12/23 12:17:26;;;;;;;3.45;2.47;;;14.00;77.50;;;;;;5098941;28;20048;-65
2021/12/23 12:19:58;;;;;;;6.03;3.42;;;14.00;77.90;;;;;;5082245;28;20070;-65
2021/12/23 12:22:55;;;;;;;6.22;3.47;;;13.90;78.10;;;;;;5099029;28;20032;-65
2021/12/23 12:25:23;;;;;;;;;;;13.80;78.70;;;;;;5117280;28;20039;-65
2021/12/23 12:27:57;;;;;;;2.83;1.95;;;13.90;78.50;;;;;;5065338;28;19927;-66
2021/12/23 12:30:44;;;;;;;3.88;2.20;;;14.00;78.00;;;;;;5081772;28;20494;-66
2021/12/23 12:33:23;;;;;;;4.20;2.35;;;14.10;78.00;;;;;;5098553;28;20504;-66
2021/12/23 12:36:03;;;;;;;3.58;2.20;;;14.20;77.90;;;;;;5097721;28;20063;-66
2021/12/23 12:39:03;;;;;;;2.78;2.08;;;14.10;77.80;;;;;;5098567;28;20052;-66
2021/12/23 12:41:37;;;;;;;2.90;2.25;;;14.00;78.20;;;;;;5081396;28;20051;-66
2021/12/23 12:44:18;;;;;;;3.97;2.53;;;13.90;78.30;;;;;;5081793;28;20055;-66
2021/12/23 12:47:08;;;;;;;3.92;2.90;;;13.90;78.80;;;;;;5065342;28;20075;-66
2021/12/23 12:49:40;;;;;;;4.50;2.60;;;13.90;78.70;;;;;;5098419;28;20050;-66
2021/12/23 12:52:12;;;;;;;9.32;3.55;;;14.00;78.80;;;;;;5098295;28;20043;-66
2021/12/23 12:54:57;;;;;;;6.30;3.55;;;13.80;77.70;;;;;;5081493;28;20087;-66
2021/12/23 12:57:33;;;;;;;6.55;2.83;;;13.80;77.60;;;;;;5098518;28;20032;-66
2021/12/23 13:00:16;;;;;;;4.18;2.20;;;13.80;77.10;;;;;;5081454;28;20039;-66
2021/12/23 13:02:50;;;;;;;7.00;2.67;;;13.90;77.30;;;;;;5098328;28;20050;-66
2021/12/23 13:05:29;;;;;;;7.50;3.05;;;13.80;79.50;;;;;;5098305;28;20435;-66
2021/12/23 13:08:28;;;;;;;4.47;2.60;;;13.80;80.10;;;;;;5115449;28;20093;-66
2021/12/23 13:11:08;;;;;;;4.00;2.55;;;13.30;81.00;;;;;;5082441;28;20047;-66
2021/12/23 13:14:01;;;;;;;4.25;2.50;;;13.20;81.20;;;;;;5101214;28;20040;-66
2021/12/23 13:16:56;;;;;;;4.00;2.50;;;13.20;82.10;;;;;;5115489;28;20122;-65
2021/12/23 13:19:35;;;;;;;5.93;3.00;;;13.30;81.70;;;;;;5081159;28;20051;-66
2021/12/23 13:22:07;;;;;;;3.83;2.78;;;13.20;81.60;;;;;;5097868;28;20058;-66
2021/12/23 13:24:36;;;;;;;4.43;2.40;;;13.30;81.50;;;;;;5098208;28;20048;-66
2021/12/23 13:27:04;;;;;;;3.83;2.40;;;13.20;81.50;;;;;;5097986;28;20091;-65
2021/12/23 13:29:33;;;;;;;4.78;2.40;;;13.20;80.70;;;;;;5097447;28;20118;-66
2021/12/23 13:32:02;;;;;;;3.13;2.38;;;13.20;81.70;;;;;;5064170;28;20056;-66
2021/12/23 13:34:33;;;;;;;4.00;1.75;;;13.20;81.50;;;;;;5097296;28;20044;-66
2021/12/23 13:37:07;;;;;;;3.75;2.38;;;13.20;81.60;;;;;;5115448;28;20043;-65
2021/12/23 13:39:38;;;;;;;3.55;2.53;;;13.10;81.50;;;;;;5115216;28;20052;-66
2021/12/23 13:42:10;;;;;;;4.25;2.60;;;13.00;82.00;;;;;;5097050;28;20142;-66
2021/12/23 13:44:46;;;;;;;4.57;2.92;;;13.00;82.10;;;;;;5097393;28;20036;-66
2021/12/23 13:47:19;;;;;;;4.80;3.03;;;12.90;82.20;;;;;;5114877;28;20050;-66
2021/12/23 13:49:53;;;;;;;4.57;2.95;;;12.80;82.10;;;;;;5097120;28;20341;-66
2021/12/23 13:52:34;;;;;;;3.53;2.17;;;12.70;82.20;;;;;;5115172;28;20073;-66
2021/12/23 13:55:16;;;;;;;5.20;2.65;;;12.60;82.50;;;;;;5096628;28;20042;-68
2021/12/23 13:57:49;;;;;;;2.88;1.85;;;12.50;82.60;;;;;;5114412;28;20130;-66
2021/12/23 14:00:17;;;;;;;4.07;2.47;;;12.50;82.90;;;;;;5114097;28;20048;-67
2021/12/23 14:02:49;;;;;;;4.65;2.47;;;12.60;83.20;;;;;;5063060;28;20134;-67
2021/12/23 14:05:18;;;;;;;4.82;2.70;;;12.50;83.30;;;;;;5096678;28;20035;-66
2021/12/23 14:07:48;;;;;;;5.35;2.75;;;12.60;83.40;;;;;;5097055;28;20043;-66
2021/12/23 14:10:24;;;;;;;6.10;3.25;;;12.60;83.20;;;;;;5079909;28;20053;-66
2021/12/23 14:12:56;;;;;;;3.22;2.03;;;12.60;83.40;;;;;;5096764;28;20077;-66